createdAt,value
2022-10-08T00:01:00.051Z,15.11
2022-10-08T00:02:00.276Z,15.14
2022-10-08T00:02:59.657Z,15.17
2022-10-08T00:04:00.000Z,15.09
2022-10-08T00:04:59.698Z,15.11
2022-10-08T00:05:59.980Z,15.11
2022-10-08T00:06:59.996Z,15.14
2022-10-08T00:07:59.758Z,15.11
2022-10-08T00:09:00.031Z,15.18
2022-10-08T00:09:59.784Z,15.15
2022-10-08T00:10:59.808Z,15.11
2022-10-08T00:12:00.086Z,15.11
2022-10-08T00:12:59.847Z,15.09
2022-10-08T00:13:59.875Z,15.11
2022-10-08T00:14:59.884Z,15.15
2022-10-08T00:16:00.197Z,15.06
2022-10-08T00:17:00.209Z,15.1
2022-10-08T00:17:59.960Z,15.07
2022-10-08T00:19:00.217Z,15
2022-10-08T00:20:00.007Z,15.03
2022-10-08T00:21:00.003Z,15.07
2022-10-08T00:21:59.758Z,15.09
2022-10-08T00:23:00.296Z,15
2022-10-08T00:24:00.048Z,15.04
2022-10-08T00:25:00.431Z,14.99
2022-10-08T00:26:00.083Z,15
2022-10-08T00:27:00.378Z,14.97
2022-10-08T00:28:00.423Z,14.96
2022-10-08T00:29:00.559Z,15.02
2022-10-08T00:30:00.425Z,15.03
2022-10-08T00:31:00.419Z,14.96
2022-10-08T00:32:00.470Z,14.89
2022-10-08T00:33:04.832Z,14.96
2022-10-08T00:34:00.261Z,14.96
2022-10-08T00:35:00.605Z,14.85
2022-10-08T00:36:00.590Z,14.94
2022-10-08T00:37:00.051Z,14.88
2022-10-08T00:38:00.575Z,14.85
2022-10-08T00:39:00.336Z,14.85
2022-10-08T00:40:00.603Z,14.89
2022-10-08T00:41:00.637Z,14.85
2022-10-08T00:42:00.646Z,14.85
2022-10-08T00:43:00.414Z,14.84
2022-10-08T00:44:00.690Z,14.89
2022-10-08T00:45:00.464Z,14.88
2022-10-08T00:46:00.922Z,14.91
2022-10-08T00:47:00.743Z,14.85
2022-10-08T00:48:00.761Z,14.81
2022-10-08T00:49:00.811Z,14.88
2022-10-08T00:50:00.571Z,14.85
2022-10-08T00:51:00.555Z,14.82
2022-10-08T00:52:00.599Z,14.88
2022-10-08T00:53:00.342Z,14.81
2022-10-08T00:54:00.369Z,14.81
2022-10-08T00:55:00.885Z,14.82
2022-10-08T00:56:00.656Z,14.84
2022-10-08T00:57:00.691Z,14.78
2022-10-08T00:58:00.947Z,14.72
2022-10-08T00:59:00.966Z,14.77
2022-10-08T01:00:00.991Z,14.78
2022-10-08T01:01:00.756Z,14.77
2022-10-08T01:02:01.269Z,14.78
2022-10-08T01:03:00.781Z,14.7
2022-10-08T01:04:01.060Z,14.69
2022-10-08T01:05:01.105Z,14.72
2022-10-08T01:06:01.126Z,14.73
2022-10-08T01:07:01.117Z,14.7
2022-10-08T01:08:01.155Z,14.72
2022-10-08T01:09:01.156Z,14.65
2022-10-08T01:10:01.181Z,14.6
2022-10-08T01:11:01.193Z,14.69
2022-10-08T01:12:01.213Z,14.77
2022-10-08T01:13:01.227Z,14.68
2022-10-08T01:14:00.990Z,14.68
2022-10-08T01:15:01.258Z,14.62
2022-10-08T01:16:01.464Z,14.69
2022-10-08T01:17:01.051Z,14.63
2022-10-08T01:18:01.069Z,14.54
2022-10-08T01:19:01.332Z,14.65
2022-10-08T01:20:01.153Z,14.68
2022-10-08T01:21:01.402Z,14.69
2022-10-08T01:22:01.411Z,14.65
2022-10-08T01:23:01.412Z,14.66
2022-10-08T01:24:00.946Z,14.55
2022-10-08T01:25:01.193Z,14.55
2022-10-08T01:26:01.467Z,14.63
2022-10-08T01:27:01.490Z,14.51
2022-10-08T01:28:01.704Z,14.6
2022-10-08T01:29:01.874Z,14.58
2022-10-08T01:30:01.298Z,14.62
2022-10-08T01:31:01.038Z,14.59
2022-10-08T01:32:01.665Z,14.59
2022-10-08T01:33:01.336Z,14.55
2022-10-08T01:34:01.100Z,14.59
2022-10-08T01:35:01.387Z,14.63
2022-10-08T01:36:01.655Z,14.54
2022-10-08T01:37:01.710Z,14.5
2022-10-08T01:38:01.457Z,14.5
2022-10-08T01:39:01.703Z,14.62
2022-10-08T01:40:01.638Z,14.47
2022-10-08T01:41:01.866Z,14.53
2022-10-08T01:42:01.653Z,14.55
2022-10-08T01:43:01.882Z,14.54
2022-10-08T01:44:01.579Z,14.5
2022-10-08T01:45:01.657Z,14.51
2022-10-08T01:46:02.169Z,14.55
2022-10-08T01:47:01.602Z,14.54
2022-10-08T01:48:01.926Z,14.44
2022-10-08T01:49:01.638Z,14.48
2022-10-08T01:50:01.978Z,14.47
2022-10-08T01:51:01.676Z,14.51
2022-10-08T01:52:01.688Z,14.55
2022-10-08T01:53:01.731Z,14.43
2022-10-08T01:54:02.006Z,14.48
2022-10-08T01:55:01.891Z,14.47
2022-10-08T01:56:01.936Z,14.43
2022-10-08T01:57:01.982Z,14.41
2022-10-08T01:58:01.802Z,14.51
2022-10-08T01:59:02.077Z,14.41
2022-10-08T02:00:01.833Z,14.47
2022-10-08T02:01:02.120Z,14.54
2022-10-08T02:02:02.346Z,14.41
2022-10-08T02:03:02.144Z,14.5
2022-10-08T02:04:01.912Z,14.37
2022-10-08T02:05:02.188Z,14.48
2022-10-08T02:06:01.946Z,14.35
2022-10-08T02:07:02.216Z,14.37
2022-10-08T02:08:01.984Z,14.43
2022-10-08T02:09:02.286Z,14.35
2022-10-08T02:10:02.300Z,14.5
2022-10-08T02:11:01.778Z,14.48
2022-10-08T02:12:02.093Z,14.5
2022-10-08T02:13:02.326Z,14.47
2022-10-08T02:14:01.832Z,14.28
2022-10-08T02:15:02.368Z,14.44
2022-10-08T02:16:02.198Z,14.29
2022-10-08T02:17:02.408Z,14.4
2022-10-08T02:18:02.411Z,14.32
2022-10-08T02:19:02.205Z,14.26
2022-10-08T02:20:02.275Z,14.36
2022-10-08T02:21:02.217Z,14.43
2022-10-08T02:22:02.505Z,14.32
2022-10-08T02:23:02.255Z,14.28
2022-10-08T02:24:02.022Z,14.3
2022-10-08T02:25:02.596Z,14.33
2022-10-08T02:26:02.595Z,14.28
2022-10-08T02:27:02.598Z,14.41
2022-10-08T02:28:02.257Z,14.33
2022-10-08T02:29:02.923Z,14.32
2022-10-08T02:30:02.657Z,14.26
2022-10-08T02:31:02.666Z,14.35
2022-10-08T02:32:03.066Z,14.32
2022-10-08T02:33:02.433Z,14.44
2022-10-08T02:34:02.924Z,14.29
2022-10-08T02:35:02.901Z,14.32
2022-10-08T02:36:02.514Z,14.3
2022-10-08T02:37:02.871Z,14.29
2022-10-08T02:38:02.899Z,14.3
2022-10-08T02:39:02.925Z,14.32
2022-10-08T02:40:02.573Z,14.4
2022-10-08T02:41:02.914Z,14.3
2022-10-08T02:42:02.943Z,14.29
2022-10-08T02:43:02.936Z,14.3
2022-10-08T02:44:02.680Z,14.36
2022-10-08T02:45:02.921Z,14.32
2022-10-08T02:46:02.928Z,14.36
2022-10-08T02:47:02.692Z,14.26
2022-10-08T02:48:02.979Z,14.36
2022-10-08T02:49:02.734Z,14.25
2022-10-08T02:50:02.508Z,14.35
2022-10-08T02:51:03.024Z,14.22
2022-10-08T02:52:02.808Z,14.36
2022-10-08T02:53:03.063Z,14.3
2022-10-08T02:54:03.114Z,14.28
2022-10-08T02:55:02.605Z,14.29
2022-10-08T02:56:03.019Z,14.28
2022-10-08T02:57:05.848Z,14.37
2022-10-08T02:58:02.913Z,14.32
2022-10-08T02:59:03.179Z,14.29
2022-10-08T03:00:02.970Z,14.25
2022-10-08T03:01:03.246Z,14.29
2022-10-08T03:02:03.218Z,14.23
2022-10-08T03:03:03.241Z,14.32
2022-10-08T03:04:02.914Z,14.28
2022-10-08T03:05:02.925Z,14.25
2022-10-08T03:06:03.036Z,14.23
2022-10-08T03:07:03.332Z,14.26
2022-10-08T03:08:03.336Z,14.32
2022-10-08T03:09:03.122Z,14.23
2022-10-08T03:10:03.135Z,14.26
2022-10-08T03:11:03.378Z,14.22
2022-10-08T03:12:03.161Z,14.17
2022-10-08T03:13:03.453Z,14.28
2022-10-08T03:14:03.225Z,14.26
2022-10-08T03:15:03.495Z,14.2
2022-10-08T03:16:02.992Z,14.12
2022-10-08T03:17:03.507Z,14.18
2022-10-08T03:18:03.511Z,14.18
2022-10-08T03:19:03.534Z,14.22
2022-10-08T03:20:03.297Z,14.18
2022-10-08T03:21:03.567Z,14.17
2022-10-08T03:22:03.332Z,14.17
2022-10-08T03:23:03.352Z,14.2
2022-10-08T03:24:03.382Z,14.17
2022-10-08T03:25:03.394Z,14.17
2022-10-08T03:26:03.415Z,14.12
2022-10-08T03:27:03.431Z,14.22
2022-10-08T03:28:03.584Z,14.17
2022-10-08T03:29:04.045Z,14.15
2022-10-08T03:30:03.753Z,14.17
2022-10-08T03:31:03.698Z,14.17
2022-10-08T03:32:03.549Z,14.17
2022-10-08T03:33:03.791Z,14.15
2022-10-08T03:34:03.552Z,14.04
2022-10-08T03:35:03.828Z,14.17
2022-10-08T03:36:03.589Z,14.15
2022-10-08T03:37:03.606Z,14.1
2022-10-08T03:38:03.628Z,14.04
2022-10-08T03:39:03.930Z,14.04
2022-10-08T03:40:03.933Z,14.04
2022-10-08T03:41:03.949Z,14.12
2022-10-08T03:42:03.961Z,14.04
2022-10-08T03:43:04.023Z,14.05
2022-10-08T03:44:04.009Z,14.05
2022-10-08T03:45:04.032Z,14.04
2022-10-08T03:46:04.333Z,14.12
2022-10-08T03:47:03.529Z,14.1
2022-10-08T03:48:04.094Z,14.08
2022-10-08T03:49:04.083Z,14.05
2022-10-08T03:50:04.098Z,14.1
2022-10-08T03:51:03.871Z,14.11
2022-10-08T03:52:04.235Z,14.14
2022-10-08T03:53:04.158Z,14.12
2022-10-08T03:54:03.922Z,14
2022-10-08T03:55:03.678Z,14.12
2022-10-08T03:56:04.219Z,14.12
2022-10-08T03:57:03.974Z,14.05
2022-10-08T03:58:03.986Z,14.08
2022-10-08T03:59:04.264Z,14.12
2022-10-08T04:00:04.021Z,14.04
2022-10-08T04:01:04.196Z,14.1
2022-10-08T04:02:04.095Z,14.1
2022-10-08T04:03:04.055Z,14.04
2022-10-08T04:04:04.383Z,14.1
2022-10-08T04:05:04.176Z,14.05
2022-10-08T04:06:04.425Z,14.07
2022-10-08T04:07:04.416Z,14.12
2022-10-08T04:08:04.436Z,14.14
2022-10-08T04:09:04.475Z,14.11
2022-10-08T04:10:04.217Z,14.07
2022-10-08T04:11:04.482Z,14.1
2022-10-08T04:12:04.512Z,14.14
2022-10-08T04:13:04.521Z,14.07
2022-10-08T04:14:04.282Z,14.04
2022-10-08T04:15:04.564Z,14.03
2022-10-08T04:16:05.019Z,14.11
2022-10-08T04:17:04.538Z,14.03
2022-10-08T04:18:04.681Z,14.08
2022-10-08T04:19:04.734Z,14.04
2022-10-08T04:20:04.729Z,14.1
2022-10-08T04:21:04.678Z,14.12
2022-10-08T04:22:04.433Z,14.12
2022-10-08T04:23:04.189Z,14.18
2022-10-08T04:24:04.726Z,14.12
2022-10-08T04:25:04.751Z,14.15
2022-10-08T04:26:04.681Z,14.14
2022-10-08T04:27:04.925Z,14.12
2022-10-08T04:28:04.929Z,14.07
2022-10-08T04:29:04.698Z,14.15
2022-10-08T04:30:04.934Z,14.04
2022-10-08T04:31:04.920Z,14.15
2022-10-08T04:32:04.349Z,14.12
2022-10-08T04:33:04.959Z,14.14
2022-10-08T04:34:04.972Z,14.08
2022-10-08T04:35:04.941Z,14.15
2022-10-08T04:36:05.450Z,14.18
2022-10-08T04:37:04.963Z,14.15
2022-10-08T04:38:04.725Z,14.15
2022-10-08T04:39:04.993Z,14.18
2022-10-08T04:40:05.026Z,14.12
2022-10-08T04:41:04.766Z,14.15
2022-10-08T04:42:05.056Z,14.2
2022-10-08T04:43:04.558Z,14.15
2022-10-08T04:44:04.835Z,14.17
2022-10-08T04:45:04.855Z,14.15
2022-10-08T04:46:05.595Z,14.2
2022-10-08T04:47:04.882Z,14.17
2022-10-08T04:48:05.312Z,14.2
2022-10-08T04:49:05.303Z,14.2
2022-10-08T04:50:05.060Z,14.2
2022-10-08T04:51:10.445Z,14.2
2022-10-08T04:52:05.436Z,14.17
2022-10-08T04:53:05.298Z,14.22
2022-10-08T04:54:04.762Z,14.2
2022-10-08T04:55:05.074Z,14.18
2022-10-08T04:56:05.048Z,14.23
2022-10-08T04:57:05.097Z,14.18
2022-10-08T04:58:05.096Z,14.22
2022-10-08T04:59:05.098Z,14.25
2022-10-08T05:00:22.919Z,14.22
2022-10-08T05:01:05.400Z,14.2
2022-10-08T05:02:05.511Z,14.18
2022-10-08T05:03:05.837Z,14.18
2022-10-08T05:04:05.340Z,14.17
2022-10-08T05:05:05.496Z,14.18
2022-10-08T05:06:05.263Z,14.18
2022-10-08T05:07:05.584Z,14.2
2022-10-08T05:08:05.513Z,14.2
2022-10-08T05:09:05.321Z,14.18
2022-10-08T05:10:05.557Z,14.2
2022-10-08T05:11:05.569Z,14.17
2022-10-08T05:12:05.342Z,14.17
2022-10-08T05:13:05.613Z,14.28
2022-10-08T05:14:05.376Z,14.26
2022-10-08T05:15:05.395Z,14.18
2022-10-08T05:16:05.678Z,14.26
2022-10-08T05:17:05.444Z,14.17
2022-10-08T05:18:05.193Z,14.17
2022-10-08T05:19:05.209Z,14.23
2022-10-08T05:20:05.745Z,14.29
2022-10-08T05:21:05.524Z,14.14
2022-10-08T05:22:05.814Z,14.25
2022-10-08T05:23:05.566Z,14.3
2022-10-08T05:24:05.563Z,14.2
2022-10-08T05:25:05.835Z,14.29
2022-10-08T05:26:05.939Z,14.15
2022-10-08T05:27:05.868Z,14.2
2022-10-08T05:28:06.193Z,14.18
2022-10-08T05:29:05.641Z,14.15
2022-10-08T05:30:05.672Z,14.25
2022-10-08T05:31:06.040Z,14.14
2022-10-08T05:32:05.951Z,14.17
2022-10-08T05:33:05.978Z,14.28
2022-10-08T05:34:05.736Z,14.3
2022-10-08T05:35:05.814Z,14.26
2022-10-08T05:36:05.776Z,14.3
2022-10-08T05:37:06.075Z,14.2
2022-10-08T05:38:06.106Z,14.26
2022-10-08T05:39:06.106Z,14.18
2022-10-08T05:40:06.117Z,14.2
2022-10-08T05:41:05.869Z,14.3
2022-10-08T05:42:06.147Z,14.3
2022-10-08T05:43:05.908Z,14.25
2022-10-08T05:44:06.174Z,14.3
2022-10-08T05:45:05.934Z,14.26
2022-10-08T05:46:06.260Z,14.17
2022-10-08T05:47:06.235Z,14.3
2022-10-08T05:48:06.011Z,14.26
2022-10-08T05:49:06.017Z,14.22
2022-10-08T05:50:06.029Z,14.3
2022-10-08T05:51:06.058Z,14.18
2022-10-08T05:52:06.324Z,14.32
2022-10-08T05:53:11.535Z,14.28
2022-10-08T05:54:06.410Z,14.26
2022-10-08T05:55:06.415Z,14.17
2022-10-08T05:56:06.396Z,14.32
2022-10-08T05:57:06.422Z,14.17
2022-10-08T05:58:05.926Z,14.17
2022-10-08T05:59:06.197Z,14.18
2022-10-08T06:00:06.251Z,14.29
2022-10-08T06:01:06.242Z,14.26
2022-10-08T06:02:06.508Z,14.29
2022-10-08T06:03:06.795Z,14.32
2022-10-08T06:04:12.736Z,14.28
2022-10-08T06:05:06.783Z,14.25
2022-10-08T06:06:06.590Z,14.29
2022-10-08T06:07:06.088Z,14.2
2022-10-08T06:08:06.366Z,14.32
2022-10-08T06:09:06.394Z,14.3
2022-10-08T06:10:06.422Z,14.26
2022-10-08T06:11:06.715Z,14.33
2022-10-08T06:12:06.442Z,14.32
2022-10-08T06:13:06.701Z,14.26
2022-10-08T06:14:06.742Z,14.22
2022-10-08T06:15:06.507Z,14.26
2022-10-08T06:16:06.747Z,14.26
2022-10-08T06:17:06.535Z,14.29
2022-10-08T06:18:06.801Z,14.35
2022-10-08T06:19:07.034Z,14.28
2022-10-08T06:20:06.860Z,14.26
2022-10-08T06:21:06.863Z,14.26
2022-10-08T06:22:06.678Z,14.28
2022-10-08T06:23:06.378Z,14.25
2022-10-08T06:24:06.919Z,14.28
2022-10-08T06:25:06.988Z,14.26
2022-10-08T06:26:06.726Z,14.32
2022-10-08T06:27:06.869Z,14.22
2022-10-08T06:28:06.954Z,14.3
2022-10-08T06:29:06.550Z,14.32
2022-10-08T06:30:06.783Z,14.35
2022-10-08T06:31:07.279Z,14.32
2022-10-08T06:32:06.802Z,14.22
2022-10-08T06:33:06.828Z,14.2
2022-10-08T06:34:07.047Z,14.26
2022-10-08T06:35:07.114Z,14.29
2022-10-08T06:36:06.878Z,14.32
2022-10-08T06:37:06.890Z,14.29
2022-10-08T06:38:07.181Z,14.4
2022-10-08T06:39:06.941Z,14.25
2022-10-08T06:40:06.953Z,14.3
2022-10-08T06:41:07.253Z,14.28
2022-10-08T06:42:07.001Z,14.35
2022-10-08T06:43:07.060Z,14.29
2022-10-08T06:44:07.311Z,14.32
2022-10-08T06:45:07.275Z,14.28
2022-10-08T06:46:07.048Z,14.29
2022-10-08T06:47:07.068Z,14.23
2022-10-08T06:48:07.349Z,14.29
2022-10-08T06:49:07.117Z,14.33
2022-10-08T06:50:07.162Z,14.25
2022-10-08T06:51:06.900Z,14.29
2022-10-08T06:52:07.174Z,14.26
2022-10-08T06:53:07.197Z,14.28
2022-10-08T06:54:12.954Z,14.35
2022-10-08T06:55:07.490Z,14.35
2022-10-08T06:56:06.989Z,14.29
2022-10-08T06:57:07.553Z,14.4
2022-10-08T06:58:07.784Z,14.36
2022-10-08T06:59:07.477Z,14.29
2022-10-08T07:00:07.315Z,14.29
2022-10-08T07:01:07.993Z,14.28
2022-10-08T07:02:07.702Z,14.35
2022-10-08T07:03:07.679Z,14.32
2022-10-08T07:04:07.650Z,14.28
2022-10-08T07:05:07.767Z,14.35
2022-10-08T07:06:07.433Z,14.33
2022-10-08T07:07:07.236Z,14.43
2022-10-08T07:08:07.719Z,14.5
2022-10-08T07:09:07.766Z,14.47
2022-10-08T07:10:07.760Z,14.41
2022-10-08T07:11:07.785Z,14.47
2022-10-08T07:12:07.787Z,14.41
2022-10-08T07:13:07.837Z,14.53
2022-10-08T07:14:07.601Z,14.5
2022-10-08T07:15:07.616Z,14.45
2022-10-08T07:16:07.887Z,14.44
2022-10-08T07:17:07.631Z,14.47
2022-10-08T07:18:07.650Z,14.47
2022-10-08T07:19:07.655Z,14.5
2022-10-08T07:20:07.943Z,14.44
2022-10-08T07:21:07.722Z,14.51
2022-10-08T07:22:07.707Z,14.43
2022-10-08T07:23:07.732Z,14.47
2022-10-08T07:24:07.752Z,14.44
2022-10-08T07:25:07.776Z,14.62
2022-10-08T07:26:07.784Z,14.55
2022-10-08T07:27:07.816Z,14.44
2022-10-08T07:28:08.200Z,14.51
2022-10-08T07:29:08.123Z,14.58
2022-10-08T07:30:08.144Z,14.51
2022-10-08T07:31:08.323Z,14.5
2022-10-08T07:32:07.911Z,14.58
2022-10-08T07:33:07.916Z,14.5
2022-10-08T07:34:07.943Z,14.47
2022-10-08T07:35:08.205Z,14.48
2022-10-08T07:36:07.965Z,14.48
2022-10-08T07:37:08.245Z,14.58
2022-10-08T07:38:08.017Z,14.43
2022-10-08T07:39:08.074Z,14.58
2022-10-08T07:40:08.295Z,14.59
2022-10-08T07:41:08.055Z,14.62
2022-10-08T07:42:08.085Z,14.54
2022-10-08T07:43:08.350Z,14.51
2022-10-08T07:44:08.109Z,14.54
2022-10-08T07:45:08.161Z,14.55
2022-10-08T07:46:08.771Z,14.54
2022-10-08T07:47:08.190Z,14.53
2022-10-08T07:48:08.466Z,14.47
2022-10-08T07:49:08.210Z,14.47
2022-10-08T07:50:08.520Z,14.48
2022-10-08T07:51:08.239Z,14.5
2022-10-08T07:52:08.526Z,14.51
2022-10-08T07:53:08.543Z,14.44
2022-10-08T07:54:08.567Z,14.41
2022-10-08T07:55:08.577Z,14.54
2022-10-08T07:56:08.585Z,14.47
2022-10-08T07:57:08.612Z,14.48
2022-10-08T07:58:08.635Z,14.43
2022-10-08T07:59:08.649Z,14.51
2022-10-08T08:00:08.432Z,14.51
2022-10-08T08:01:08.719Z,14.5
2022-10-08T08:02:08.762Z,14.53
2022-10-08T08:03:08.495Z,14.55
2022-10-08T08:04:08.229Z,14.45
2022-10-08T08:05:08.773Z,14.65
2022-10-08T08:06:08.535Z,14.47
2022-10-08T08:07:08.790Z,14.48
2022-10-08T08:08:08.818Z,14.59
2022-10-08T08:09:08.581Z,14.43
2022-10-08T08:10:08.851Z,14.51
2022-10-08T08:11:08.356Z,14.55
2022-10-08T08:12:08.371Z,14.51
2022-10-08T08:13:08.648Z,14.43
2022-10-08T08:14:08.664Z,14.51
2022-10-08T08:15:08.698Z,14.5
2022-10-08T08:16:09.026Z,14.44
2022-10-08T08:17:08.786Z,14.54
2022-10-08T08:18:08.773Z,14.53
2022-10-08T08:19:08.796Z,14.62
2022-10-08T08:20:09.044Z,14.62
2022-10-08T08:21:08.537Z,14.59
2022-10-08T08:22:09.072Z,14.6
2022-10-08T08:23:08.835Z,14.59
2022-10-08T08:24:09.106Z,14.59
2022-10-08T08:25:09.125Z,14.59
2022-10-08T08:26:09.147Z,14.59
2022-10-08T08:27:09.167Z,14.62
2022-10-08T08:28:09.068Z,14.58
2022-10-08T08:29:09.202Z,14.63
2022-10-08T08:30:08.957Z,14.53
2022-10-08T08:31:09.239Z,14.6
2022-10-08T08:32:09.253Z,14.63
2022-10-08T08:33:09.297Z,14.66
2022-10-08T08:34:09.326Z,14.62
2022-10-08T08:35:09.082Z,14.54
2022-10-08T08:36:09.333Z,14.55
2022-10-08T08:37:09.351Z,14.6
2022-10-08T08:38:09.110Z,14.66
2022-10-08T08:39:08.874Z,14.63
2022-10-08T08:40:09.407Z,14.62
2022-10-08T08:41:20.419Z,14.65
2022-10-08T08:42:09.179Z,14.59
2022-10-08T08:43:09.197Z,14.53
2022-10-08T08:44:09.471Z,14.68
2022-10-08T08:45:18.842Z,14.58
2022-10-08T08:46:09.138Z,14.66
2022-10-08T08:47:09.281Z,14.66
2022-10-08T08:48:09.554Z,14.6
2022-10-08T08:49:09.598Z,14.63
2022-10-08T08:50:09.626Z,14.69
2022-10-08T08:51:09.629Z,14.6
2022-10-08T08:52:09.360Z,14.68
2022-10-08T08:53:09.387Z,14.65
2022-10-08T08:54:09.656Z,14.72
2022-10-08T08:55:09.701Z,14.66
2022-10-08T08:56:09.443Z,14.77
2022-10-08T08:57:09.720Z,14.78
2022-10-08T08:58:15.451Z,14.79
2022-10-08T08:59:09.242Z,14.85
2022-10-08T09:00:09.513Z,14.85
2022-10-08T09:01:09.998Z,14.86
2022-10-08T09:02:09.546Z,14.85
2022-10-08T09:03:09.570Z,14.85
2022-10-08T09:04:09.353Z,14.89
2022-10-08T09:05:10.129Z,14.89
2022-10-08T09:06:09.916Z,14.94
2022-10-08T09:07:10.001Z,14.92
2022-10-08T09:08:09.926Z,14.85
2022-10-08T09:09:09.935Z,14.85
2022-10-08T09:10:10.019Z,14.88
2022-10-08T09:11:09.982Z,14.92
2022-10-08T09:12:09.998Z,14.89
2022-10-08T09:13:09.762Z,14.92
2022-10-08T09:14:10.027Z,14.85
2022-10-08T09:15:10.048Z,14.96
2022-10-08T09:16:10.182Z,14.89
2022-10-08T09:17:09.809Z,14.88
2022-10-08T09:18:10.103Z,14.97
2022-10-08T09:19:09.861Z,14.94
2022-10-08T09:20:09.643Z,14.91
2022-10-08T09:21:10.186Z,15
2022-10-08T09:22:10.213Z,14.97
2022-10-08T09:23:09.960Z,14.91
2022-10-08T09:24:09.963Z,15.04
2022-10-08T09:25:09.969Z,15.03
2022-10-08T09:26:10.259Z,15.02
2022-10-08T09:27:10.271Z,15
2022-10-08T09:28:10.005Z,15.03
2022-10-08T09:29:10.304Z,15.11
2022-10-08T09:30:10.067Z,15.06
2022-10-08T09:31:14.405Z,15.06
2022-10-08T09:32:10.368Z,15.06
2022-10-08T09:33:10.391Z,15.14
2022-10-08T09:34:10.410Z,15.24
2022-10-08T09:35:10.167Z,15.21
2022-10-08T09:36:10.188Z,15.22
2022-10-08T09:37:10.492Z,15.25
2022-10-08T09:38:10.946Z,15.21
2022-10-08T09:39:10.524Z,15.21
2022-10-08T09:40:10.255Z,15.21
2022-10-08T09:41:10.526Z,15.25
2022-10-08T09:42:10.299Z,15.29
2022-10-08T09:43:10.572Z,15.29
2022-10-08T09:44:10.596Z,15.29
2022-10-08T09:45:10.603Z,15.35
2022-10-08T09:46:10.581Z,15.36
2022-10-08T09:47:10.388Z,15.29
2022-10-08T09:48:10.666Z,15.28
2022-10-08T09:49:10.424Z,15.39
2022-10-08T09:50:10.721Z,15.25
2022-10-08T09:51:10.476Z,15.42
2022-10-08T09:52:17.055Z,15.4
2022-10-08T09:53:10.860Z,15.44
2022-10-08T09:54:10.796Z,15.43
2022-10-08T09:55:10.811Z,15.4
2022-10-08T09:56:10.556Z,15.47
2022-10-08T09:57:10.579Z,15.37
2022-10-08T09:58:10.851Z,15.51
2022-10-08T09:59:10.887Z,15.47
2022-10-08T10:00:10.885Z,15.47
2022-10-08T10:01:10.856Z,15.51
2022-10-08T10:02:10.932Z,15.54
2022-10-08T10:03:10.691Z,15.52
2022-10-08T10:04:11.228Z,15.52
2022-10-08T10:05:10.985Z,15.47
2022-10-08T10:06:11.010Z,15.52
2022-10-08T10:07:11.023Z,15.52
2022-10-08T10:08:11.054Z,15.55
2022-10-08T10:09:11.093Z,15.57
2022-10-08T10:10:10.867Z,15.54
2022-10-08T10:11:10.865Z,15.57
2022-10-08T10:12:11.110Z,15.57
2022-10-08T10:13:10.614Z,15.67
2022-10-08T10:14:11.156Z,15.7
2022-10-08T10:15:11.169Z,15.62
2022-10-08T10:16:11.193Z,15.64
2022-10-08T10:17:10.976Z,15.7
2022-10-08T10:18:11.226Z,15.75
2022-10-08T10:19:11.249Z,15.8
2022-10-08T10:20:11.262Z,15.76
2022-10-08T10:21:11.287Z,15.76
2022-10-08T10:22:11.305Z,15.77
2022-10-08T10:23:11.328Z,15.79
2022-10-08T10:24:11.087Z,15.83
2022-10-08T10:25:11.382Z,15.77
2022-10-08T10:26:11.879Z,15.76
2022-10-08T10:27:11.169Z,15.76
2022-10-08T10:28:11.381Z,15.88
2022-10-08T10:29:11.173Z,15.9
2022-10-08T10:30:11.455Z,15.88
2022-10-08T10:31:11.723Z,15.91
2022-10-08T10:32:14.453Z,15.84
2022-10-08T10:33:11.262Z,15.84
2022-10-08T10:34:11.534Z,15.98
2022-10-08T10:35:11.038Z,15.95
2022-10-08T10:36:11.309Z,15.84
2022-10-08T10:37:11.326Z,15.84
2022-10-08T10:38:11.344Z,15.91
2022-10-08T10:39:11.670Z,15.9
2022-10-08T10:40:11.393Z,15.9
2022-10-08T10:41:11.683Z,15.86
2022-10-08T10:42:11.710Z,15.95
2022-10-08T10:43:11.722Z,15.91
2022-10-08T10:44:11.720Z,15.92
2022-10-08T10:45:11.483Z,15.88
2022-10-08T10:46:11.927Z,15.83
2022-10-08T10:47:11.778Z,15.83
2022-10-08T10:48:11.793Z,15.76
2022-10-08T10:49:11.824Z,15.75
2022-10-08T10:50:11.833Z,15.86
2022-10-08T10:51:11.598Z,15.8
2022-10-08T10:52:11.615Z,15.77
2022-10-08T10:53:11.630Z,15.83
2022-10-08T10:54:11.950Z,15.75
2022-10-08T10:55:11.941Z,15.82
2022-10-08T10:56:11.950Z,15.82
2022-10-08T10:57:11.994Z,15.75
2022-10-08T10:58:12.007Z,15.77
2022-10-08T10:59:12.031Z,15.82
2022-10-08T11:00:12.063Z,15.9
2022-10-08T11:01:12.242Z,15.92
2022-10-08T11:02:11.905Z,15.94
2022-10-08T11:03:12.153Z,15.92
2022-10-08T11:04:11.595Z,16
2022-10-08T11:05:12.120Z,15.95
2022-10-08T11:06:11.631Z,16.04
2022-10-08T11:07:11.899Z,15.97
2022-10-08T11:08:12.190Z,16.01
2022-10-08T11:09:12.193Z,16.09
2022-10-08T11:10:11.961Z,16.04
2022-10-08T11:11:11.976Z,16.08
2022-10-08T11:12:11.996Z,16.09
2022-10-08T11:13:12.297Z,16.15
2022-10-08T11:14:12.319Z,16.2
2022-10-08T11:15:11.888Z,16.21
2022-10-08T11:16:12.596Z,16.24
2022-10-08T11:17:11.833Z,16.36
2022-10-08T11:18:12.109Z,16.24
2022-10-08T11:19:12.126Z,16.42
2022-10-08T11:20:12.156Z,16.41
2022-10-08T11:21:12.428Z,16.41
2022-10-08T11:22:12.451Z,16.42
2022-10-08T11:23:12.209Z,16.43
2022-10-08T11:24:12.494Z,16.49
2022-10-08T11:25:12.503Z,16.5
2022-10-08T11:26:28.403Z,16.5
2022-10-08T11:27:12.283Z,16.54
2022-10-08T11:28:12.946Z,16.57
2022-10-08T11:29:12.631Z,16.53
2022-10-08T11:30:12.629Z,16.54
2022-10-08T11:31:13.021Z,16.49
2022-10-08T11:32:12.382Z,16.49
2022-10-08T11:33:12.668Z,16.64
2022-10-08T11:34:12.176Z,16.54
2022-10-08T11:35:12.445Z,16.6
2022-10-08T11:36:12.213Z,16.65
2022-10-08T11:37:12.836Z,16.58
2022-10-08T11:38:12.501Z,16.64
2022-10-08T11:39:12.518Z,16.72
2022-10-08T11:40:12.902Z,16.64
2022-10-08T11:41:12.555Z,16.56
2022-10-08T11:42:12.578Z,16.6
2022-10-08T11:43:12.961Z,16.68
2022-10-08T11:44:12.632Z,16.64
2022-10-08T11:45:12.916Z,16.56
2022-10-08T11:46:13.103Z,16.53
2022-10-08T11:47:12.964Z,16.49
2022-10-08T11:48:14.783Z,16.57
2022-10-08T11:49:12.714Z,16.54
2022-10-08T11:50:13.118Z,16.51
2022-10-08T11:51:12.901Z,16.56
2022-10-08T11:52:13.039Z,16.46
2022-10-08T11:53:12.905Z,16.47
2022-10-08T11:54:12.855Z,16.5
2022-10-08T11:55:12.575Z,16.51
2022-10-08T11:56:12.905Z,16.54
2022-10-08T11:57:13.127Z,16.56
2022-10-08T11:58:13.685Z,16.5
2022-10-08T11:59:13.171Z,16.5
2022-10-08T12:00:13.644Z,16.53
2022-10-08T12:01:12.990Z,16.51
2022-10-08T12:02:13.467Z,16.57
2022-10-08T12:03:13.398Z,16.39
2022-10-08T12:04:13.012Z,16.54
2022-10-08T12:05:13.026Z,16.57
2022-10-08T12:06:13.308Z,16.57
2022-10-08T12:07:13.318Z,16.47
2022-10-08T12:08:13.337Z,16.56
2022-10-08T12:09:13.357Z,16.66
2022-10-08T12:10:13.180Z,16.56
2022-10-08T12:11:13.145Z,16.54
2022-10-08T12:12:12.911Z,16.61
2022-10-08T12:13:18.074Z,16.69
2022-10-08T12:14:13.214Z,16.74
2022-10-08T12:15:13.483Z,16.74
2022-10-08T12:16:13.689Z,16.81
2022-10-08T12:17:13.291Z,16.81
2022-10-08T12:18:13.306Z,16.86
2022-10-08T12:19:13.578Z,16.93
2022-10-08T12:20:13.590Z,16.9
2022-10-08T12:21:13.337Z,16.97
2022-10-08T12:22:13.607Z,17.04
2022-10-08T12:23:13.367Z,17.08
2022-10-08T12:24:13.397Z,17.01
2022-10-08T12:25:13.164Z,17.05
2022-10-08T12:26:13.457Z,16.97
2022-10-08T12:27:13.726Z,17.12
2022-10-08T12:28:13.826Z,17.02
2022-10-08T12:29:13.748Z,17.08
2022-10-08T12:30:13.916Z,17.11
2022-10-08T12:31:13.858Z,17.11
2022-10-08T12:32:13.823Z,17.16
2022-10-08T12:33:13.847Z,17.16
2022-10-08T12:34:13.874Z,17.29
2022-10-08T12:35:13.963Z,17.26
2022-10-08T12:36:13.369Z,17.29
2022-10-08T12:37:18.938Z,17.3
2022-10-08T12:38:13.932Z,17.33
2022-10-08T12:39:13.942Z,17.38
2022-10-08T12:40:13.710Z,17.41
2022-10-08T12:41:13.987Z,17.41
2022-10-08T12:42:14.011Z,17.46
2022-10-08T12:43:13.773Z,17.44
2022-10-08T12:44:14.048Z,17.48
2022-10-08T12:45:13.808Z,17.51
2022-10-08T12:46:14.005Z,17.52
2022-10-08T12:47:14.105Z,17.51
2022-10-08T12:48:13.863Z,17.56
2022-10-08T12:49:13.919Z,17.54
2022-10-08T12:50:14.237Z,17.56
2022-10-08T12:51:14.223Z,17.6
2022-10-08T12:52:13.963Z,17.59
2022-10-08T12:53:14.229Z,17.59
2022-10-08T12:54:14.050Z,17.63
2022-10-08T12:55:14.270Z,17.52
2022-10-08T12:56:14.304Z,17.48
2022-10-08T12:57:14.310Z,17.39